Detall de PIREP

Printer-friendly versionPDF version

[2011/06/28 08:24:00]
Flight IATA:CT3119
Pilot Number:011
Company ICAO:CAT
Aircraft Type:B463/A
PAX:100
Departing Airport: LFMP
Destination Airport: LEPA
Alternate Airport:LEBL
Online: VATSIM
Route:BGR A27 KENAS
Flight Level:F170
No Slew and time accel
No pause
Crash detect
Detect pilot in Cockpit between each 30 and 45 minutes
08:24 Zero fuel Weight: 86000 Lbs, Fuel Weight: 8961 Lbs
08:24 VATSIM:LFMP 280800Z 01004KT 280V040 9999 FEW020 25/17 Q1017 NOSIG
08:24 VATSIM:LEPA 280800Z 07003KT 010V130 CAVOK 30/14 Q1016 BECMG 22012KT
08:29 Parking Brakes off
08:42 Take-off
08:42 Take off Weight: 94454 Lbs
08:42 Wind: 012º @ 004 Knots Heading: 146º
08:42 POS N42º 44´ 36´´ E002º 52´ 14´´
08:42 Gear Up: 150 Knots
08:42 Flaps:3 at 150 Knots
08:43 Flaps:2 at 234 Knots
08:43 Flaps:1 at 238 Knots
08:43 Flaps:0 at 241 Knots
08:54 TOC
08:54 Fuel Weight: 6662 Lb
08:57 Wind:338º@001 Knots Heading: 183º Ground Speed: 382 Knots Altitude 17089 ft
09:07 TOD
09:07 Fuel Weight: 5335 Lb
09:12 Wind:119º@023 Knots Heading: 160º Ground Speed: 303 Knots Altitude 10364 ft
09:24 Flaps:1 at 252 Knots
09:24 Flaps:2 at 250 Knots
09:24 Flaps:3 at 248 Knots
09:24 Flaps:4 at 209 Knots
09:24 Gear Down: 208 Knots
09:25 Flaps:5 at 182 Knots
09:25 Flaps:6 at 179 Knots
09:26 TouchDown:Rate -388 ft/min Speed: 117 Knots
09:26 VATSIM:LEPA 280900Z VRB02KT CAVOK 33/12 Q1016 BECMG 22012KT
09:26 Land
09:26 Wind:116º@007 Knots
09:26 Heading: 237º
09:26 Flight Duration: 00:44
09:26 Landing Weight: 90478 Lbs
09:26 POS N39º 33´ 27´´ E002º 43´ 58´´
09:31 Parking brakes on
09:31 Block to Block Duration: 01:02
09:31 Final Fuel: 4261 Lbls
09:31 Spent Fuel: 4700 Lbls
09:31 Flight Length: 206 NM
09:31 TOD Land Length: 60 NM

Exportar CSV

Powered by Drupal - Modified by Danger4k